createdAt,value
2022-11-09T00:01:31.855Z,10.57
2022-11-09T00:03:59.834Z,11.63
2022-11-09T00:06:27.072Z,7.70
2022-11-09T00:08:54.385Z,8.07
2022-11-09T00:11:21.137Z,11.88
2022-11-09T00:13:47.802Z,11.45
2022-11-09T00:16:16.671Z,10.35
2022-11-09T00:18:49.585Z,9.80
2022-11-09T00:21:21.895Z,8.70
2022-11-09T00:23:48.792Z,9.35
2022-11-09T00:26:16.851Z,12.85
2022-11-09T00:28:43.416Z,8.25
2022-11-09T00:31:28.158Z,10.38
2022-11-09T00:33:55.868Z,9.93
2022-11-09T00:36:24.237Z,11.02
2022-11-09T00:38:52.769Z,11.20
2022-11-09T00:41:19.997Z,10.32
2022-11-09T00:43:47.239Z,11.73
2022-11-09T00:46:14.006Z,10.63
2022-11-09T00:48:41.116Z,13.38
2022-11-09T00:51:07.790Z,10.75
2022-11-09T00:53:34.437Z,10.48
2022-11-09T00:56:06.941Z,14.93
2022-11-09T00:58:35.359Z,10.43
2022-11-09T01:01:12.872Z,9.82
2022-11-09T01:03:39.661Z,13.88
2022-11-09T01:06:06.988Z,9.25
2022-11-09T01:08:34.696Z,13.02
2022-11-09T01:11:09.499Z,22.38
2022-11-09T01:13:37.500Z,12.65
2022-11-09T01:16:07.070Z,13.65
2022-11-09T01:18:33.912Z,10.60
2022-11-09T01:21:02.232Z,13.93
2022-11-09T01:23:28.951Z,12.27
2022-11-09T01:26:00.109Z,11.23
2022-11-09T01:28:26.647Z,13.63
2022-11-09T01:30:53.480Z,12.38
2022-11-09T01:33:20.563Z,14.13
2022-11-09T01:35:47.229Z,11.65
2022-11-09T01:38:13.806Z,12.38
2022-11-09T01:40:40.854Z,9.00
2022-11-09T01:43:18.582Z,10.40
2022-11-09T01:45:52.387Z,8.68
2022-11-09T01:48:23.249Z,12.40
2022-11-09T01:50:54.733Z,8.25
2022-11-09T01:53:27.154Z,13.35
2022-11-09T01:55:56.653Z,12.02
2022-11-09T01:58:29.257Z,10.38
2022-11-09T02:00:57.297Z,10.63
2022-11-09T02:03:28.763Z,11.95
2022-11-09T02:05:55.278Z,19.00
2022-11-09T02:08:23.688Z,11.20
2022-11-09T02:11:10.318Z,11.07
2022-11-09T02:13:42.997Z,10.77
2022-11-09T02:16:11.611Z,9.45
2022-11-09T02:18:43.383Z,12.25
2022-11-09T02:21:09.907Z,13.35
2022-11-09T02:23:36.723Z,14.85
2022-11-09T02:26:17.127Z,14.20
2022-11-09T02:28:43.800Z,9.73
2022-11-09T02:31:12.611Z,21.13
2022-11-09T02:33:56.362Z,14.35
2022-11-09T02:36:23.673Z,11.18
2022-11-09T02:38:51.861Z,10.50
2022-11-09T02:41:19.214Z,11.70
2022-11-09T02:43:45.770Z,11.88
2022-11-09T02:46:12.248Z,11.95
2022-11-09T02:48:38.720Z,10.27
2022-11-09T02:51:05.319Z,9.52
2022-11-09T02:53:31.976Z,12.80
2022-11-09T02:55:58.428Z,9.57
2022-11-09T02:58:24.925Z,10.13
2022-11-09T03:00:51.483Z,9.85
2022-11-09T03:03:18.301Z,11.00
2022-11-09T03:05:45.019Z,10.18
2022-11-09T03:08:11.491Z,9.73
2022-11-09T03:10:37.929Z,11.23
2022-11-09T03:13:04.394Z,11.50
2022-11-09T03:15:30.895Z,8.27
2022-11-09T03:17:57.488Z,10.02
2022-11-09T03:20:24.006Z,10.48
2022-11-09T03:22:50.491Z,10.93
2022-11-09T03:25:17.096Z,8.13
2022-11-09T03:27:43.639Z,9.05
2022-11-09T03:30:10.605Z,8.63
2022-11-09T03:32:37.093Z,10.07
2022-11-09T03:35:03.680Z,11.05
2022-11-09T03:37:30.179Z,12.20
2022-11-09T03:39:56.731Z,12.55
2022-11-09T03:42:23.170Z,7.53
2022-11-09T03:44:49.725Z,9.20
2022-11-09T03:47:16.178Z,12.02
2022-11-09T03:49:42.625Z,15.02
2022-11-09T03:52:09.099Z,10.60
2022-11-09T03:54:35.614Z,5.53
2022-11-09T03:57:02.196Z,11.35
2022-11-09T03:59:28.643Z,7.78
2022-11-09T04:01:55.157Z,7.25
2022-11-09T04:04:21.699Z,7.13
2022-11-09T04:06:48.226Z,9.27
2022-11-09T04:09:14.798Z,10.68
2022-11-09T04:11:41.314Z,7.90
2022-11-09T04:14:07.775Z,11.43
2022-11-09T04:16:34.380Z,13.63
2022-11-09T04:19:00.826Z,12.52
2022-11-09T04:21:27.293Z,19.73
2022-11-09T04:23:53.767Z,11.30
2022-11-09T04:26:20.217Z,9.75
2022-11-09T04:28:47.025Z,13.18
2022-11-09T04:31:13.500Z,13.50
2022-11-09T04:33:39.974Z,14.48
2022-11-09T04:36:06.771Z,10.38
2022-11-09T04:38:33.735Z,10.93
2022-11-09T04:41:01.448Z,13.05
2022-11-09T04:43:28.485Z,12.38
2022-11-09T04:45:55.010Z,13.15
2022-11-09T04:48:21.637Z,11.90
2022-11-09T04:50:48.137Z,14.93
2022-11-09T04:53:15.494Z,8.00
2022-11-09T04:55:42.204Z,10.13
2022-11-09T04:58:09.384Z,13.00
2022-11-09T05:00:36.646Z,13.40
2022-11-09T05:03:04.970Z,13.80
2022-11-09T05:05:33.524Z,13.15
2022-11-09T05:08:00.098Z,10.13
2022-11-09T05:10:26.559Z,9.50
2022-11-09T05:13:06.787Z,9.25
2022-11-09T05:15:34.599Z,15.05
2022-11-09T05:18:01.862Z,9.57
2022-11-09T05:20:28.722Z,10.85
2022-11-09T05:23:13.847Z,12.27
2022-11-09T05:25:40.335Z,15.95
2022-11-09T05:28:06.854Z,12.60
2022-11-09T05:30:33.415Z,11.30
2022-11-09T05:32:59.920Z,14.88
2022-11-09T05:35:26.521Z,10.25
2022-11-09T05:37:53.011Z,9.18
2022-11-09T05:40:20.587Z,10.73
2022-11-09T05:42:47.461Z,16.52
2022-11-09T05:45:41.015Z,10.93
2022-11-09T05:48:03.359Z,19.52
2022-11-09T05:50:29.964Z,10.38
2022-11-09T05:52:58.978Z,9.73
2022-11-09T05:55:25.451Z,18.02
2022-11-09T05:57:51.968Z,11.85
2022-11-09T06:00:18.763Z,12.18
2022-11-09T06:02:45.316Z,15.77
2022-11-09T06:05:11.758Z,18.85
2022-11-09T06:07:38.232Z,16.58
2022-11-09T06:10:05.469Z,13.82
2022-11-09T06:12:32.029Z,11.18
2022-11-09T06:14:58.476Z,13.18
2022-11-09T06:17:24.948Z,9.77
2022-11-09T06:19:51.407Z,15.02
2022-11-09T06:22:17.886Z,13.88
2022-11-09T06:24:44.504Z,15.75
2022-11-09T06:27:10.953Z,17.40
2022-11-09T06:29:37.552Z,14.02
2022-11-09T06:32:04.109Z,14.93
2022-11-09T06:34:30.667Z,10.18
2022-11-09T06:36:57.321Z,17.27
2022-11-09T06:39:23.778Z,12.10
2022-11-09T06:41:50.240Z,13.77
2022-11-09T06:44:16.774Z,17.52
2022-11-09T06:46:43.267Z,16.05
2022-11-09T06:49:09.912Z,17.85
2022-11-09T06:51:36.981Z,11.63
2022-11-09T06:54:03.603Z,18.67
2022-11-09T06:56:30.170Z,16.48
2022-11-09T06:58:56.639Z,15.63
2022-11-09T07:01:27.725Z,15.93
2022-11-09T07:03:54.478Z,18.27
2022-11-09T07:06:20.970Z,13.50
2022-11-09T07:08:47.505Z,12.45
2022-11-09T07:11:19.800Z,11.57
2022-11-09T07:13:48.414Z,19.67
2022-11-09T07:16:17.498Z,19.13
2022-11-09T07:18:45.814Z,10.48
2022-11-09T07:21:14.275Z,19.30
2022-11-09T07:23:41.554Z,17.90
2022-11-09T07:26:08.230Z,14.05
2022-11-09T07:28:35.176Z,13.38
2022-11-09T07:31:02.090Z,15.85
2022-11-09T07:33:30.582Z,9.30
2022-11-09T07:36:01.471Z,18.80
2022-11-09T07:38:31.487Z,11.55
2022-11-09T07:41:00.165Z,10.50
2022-11-09T07:43:26.837Z,12.85
2022-11-09T07:45:53.550Z,17.25
2022-11-09T07:48:20.097Z,17.45
2022-11-09T07:50:46.603Z,21.08
2022-11-09T07:53:14.433Z,16.50
2022-11-09T07:55:41.535Z,15.60
2022-11-09T07:58:13.450Z,13.18
2022-11-09T08:00:41.578Z,14.70
2022-11-09T08:03:08.300Z,12.27
2022-11-09T08:05:35.447Z,14.75
2022-11-09T08:08:05.930Z,11.07
2022-11-09T08:10:33.460Z,13.95
2022-11-09T08:13:02.704Z,17.08
2022-11-09T08:15:30.424Z,13.82
2022-11-09T08:18:02.057Z,8.38
2022-11-09T08:20:29.491Z,16.30
2022-11-09T08:23:00.884Z,11.85
2022-11-09T08:25:30.193Z,14.65
2022-11-09T08:27:57.203Z,12.65
2022-11-09T08:30:24.001Z,14.10
2022-11-09T08:32:50.873Z,18.52
2022-11-09T08:35:20.602Z,16.52
2022-11-09T08:37:49.419Z,17.58
2022-11-09T08:40:18.530Z,19.10
2022-11-09T08:42:45.330Z,11.85
2022-11-09T08:45:12.309Z,10.77
2022-11-09T08:47:39.473Z,15.10
2022-11-09T08:50:06.988Z,14.15
2022-11-09T08:52:34.245Z,14.27
2022-11-09T08:55:00.732Z,15.82
2022-11-09T08:57:27.562Z,14.43
2022-11-09T08:59:54.045Z,14.98
2022-11-09T09:02:21.405Z,12.25
2022-11-09T09:04:48.084Z,11.57
2022-11-09T09:07:14.972Z,13.18
2022-11-09T09:09:41.560Z,13.63
2022-11-09T09:12:09.303Z,18.13
2022-11-09T09:14:36.336Z,14.02
2022-11-09T09:17:03.088Z,12.88
2022-11-09T09:19:29.680Z,15.90
2022-11-09T09:21:56.458Z,12.35
2022-11-09T09:24:22.971Z,16.50
2022-11-09T09:26:49.528Z,12.93
2022-11-09T09:29:16.472Z,11.82
2022-11-09T09:31:43.015Z,15.80
2022-11-09T09:34:11.233Z,16.85
2022-11-09T09:36:40.113Z,11.95
2022-11-09T09:39:08.859Z,13.63
2022-11-09T09:41:35.406Z,10.38
2022-11-09T09:44:14.427Z,15.27
2022-11-09T09:46:45.112Z,14.10
2022-11-09T09:49:18.962Z,11.93
2022-11-09T09:51:49.402Z,15.60
2022-11-09T09:54:24.147Z,15.50
2022-11-09T09:56:53.175Z,12.57
2022-11-09T09:59:37.154Z,14.45
2022-11-09T10:02:03.753Z,12.57
2022-11-09T10:04:41.626Z,10.57
2022-11-09T10:07:19.177Z,13.50
2022-11-09T10:09:48.663Z,14.05
2022-11-09T10:12:24.128Z,12.13
2022-11-09T10:15:06.938Z,15.88
2022-11-09T10:17:42.984Z,13.55
2022-11-09T10:20:42.464Z,15.35
2022-11-09T10:23:21.028Z,15.23
2022-11-09T10:26:03.649Z,12.55
2022-11-09T10:28:54.284Z,11.43
2022-11-09T10:31:22.197Z,16.58
2022-11-09T10:33:54.210Z,9.82
2022-11-09T10:36:39.089Z,17.02
2022-11-09T10:39:05.973Z,12.23
2022-11-09T10:41:41.248Z,13.32
2022-11-09T10:47:02.971Z,10.23
2022-11-09T10:49:29.657Z,10.53
2022-11-09T10:51:56.159Z,7.65
2022-11-09T10:54:28.518Z,11.35
2022-11-09T10:57:11.644Z,13.00
2022-11-09T11:00:17.485Z,13.20
2022-11-09T11:02:46.076Z,9.15
2022-11-09T11:05:18.638Z,8.85
2022-11-09T11:07:46.403Z,6.10
2022-11-09T11:10:16.143Z,6.63
2022-11-09T11:12:43.926Z,7.28
2022-11-09T11:15:28.618Z,6.05
2022-11-09T11:18:11.115Z,5.90
2022-11-09T11:20:38.184Z,4.68
2022-11-09T11:23:22.736Z,10.02
2022-11-09T11:25:55.872Z,8.20
2022-11-09T11:28:46.719Z,7.63
2022-11-09T11:31:18.065Z,10.13
2022-11-09T11:33:45.138Z,7.90
2022-11-09T11:36:43.110Z,12.15
2022-11-09T11:39:20.117Z,6.30
2022-11-09T11:42:20.595Z,7.28
2022-11-09T11:45:39.534Z,6.65
2022-11-09T11:48:21.658Z,10.07
2022-11-09T11:51:13.618Z,7.45
2022-11-09T11:53:46.203Z,10.77
2022-11-09T11:56:22.959Z,11.02
2022-11-09T11:58:52.654Z,8.63
2022-11-09T12:01:25.182Z,10.00
2022-11-09T12:04:06.938Z,8.80
2022-11-09T12:07:21.188Z,7.88
2022-11-09T12:10:00.282Z,7.55
2022-11-09T12:12:44.925Z,13.45
2022-11-09T12:15:11.332Z,9.48
2022-11-09T12:17:56.965Z,6.90
2022-11-09T12:23:33.621Z,7.38
2022-11-09T12:26:14.265Z,8.38
2022-11-09T12:28:57.615Z,8.32
2022-11-09T12:31:58.308Z,4.35
2022-11-09T12:35:10.721Z,9.68
2022-11-09T12:37:46.166Z,7.38
2022-11-09T12:40:24.903Z,6.07
2022-11-09T12:43:19.619Z,6.68
2022-11-09T12:45:47.774Z,8.73
2022-11-09T12:48:34.750Z,9.70
2022-11-09T12:51:03.528Z,5.18
2022-11-09T12:53:37.630Z,6.68
2022-11-09T12:56:07.223Z,8.80
2022-11-09T12:58:35.564Z,3.33
2022-11-09T13:01:06.216Z,7.90
2022-11-09T13:03:38.685Z,8.95
2022-11-09T13:06:16.868Z,13.00
2022-11-09T13:09:07.563Z,7.03
2022-11-09T13:11:38.489Z,7.10
2022-11-09T13:14:23.529Z,7.03
2022-11-09T13:16:54.239Z,6.65
2022-11-09T13:19:36.197Z,8.43
2022-11-09T13:22:08.843Z,11.48
2022-11-09T13:24:51.180Z,6.88
2022-11-09T13:27:38.391Z,7.97
2022-11-09T13:30:23.353Z,11.77
2022-11-09T13:33:10.866Z,6.82
2022-11-09T13:35:40.320Z,12.45
2022-11-09T13:38:33.895Z,6.43
2022-11-09T13:41:24.466Z,10.48
2022-11-09T13:44:08.746Z,7.10
2022-11-09T13:46:38.513Z,4.85
2022-11-09T13:49:35.915Z,6.20
2022-11-09T13:52:02.427Z,9.68
2022-11-09T13:54:29.018Z,9.43
2022-11-09T13:56:56.427Z,8.73
2022-11-09T13:59:29.394Z,9.40
2022-11-09T14:01:58.138Z,7.35
2022-11-09T14:04:34.059Z,10.93
2022-11-09T14:07:05.220Z,6.93
2022-11-09T14:09:54.217Z,5.97
2022-11-09T14:12:46.403Z,9.73
2022-11-09T14:15:25.393Z,7.35
2022-11-09T14:18:02.360Z,12.13
2022-11-09T14:20:40.949Z,12.02
2022-11-09T14:23:18.021Z,10.93
2022-11-09T14:25:45.652Z,7.88
2022-11-09T14:28:21.430Z,10.38
2022-11-09T14:30:48.171Z,10.85
2022-11-09T14:33:37.145Z,11.32
2022-11-09T14:36:05.197Z,7.97
2022-11-09T14:38:34.609Z,10.50
2022-11-09T14:41:02.117Z,12.95
2022-11-09T14:43:31.877Z,6.90
2022-11-09T14:46:00.527Z,11.27
2022-11-09T14:48:28.392Z,9.65
2022-11-09T14:50:57.522Z,6.90
2022-11-09T14:53:29.433Z,11.65
2022-11-09T14:55:58.145Z,8.32
2022-11-09T14:58:24.749Z,11.23
2022-11-09T15:01:10.102Z,11.90
2022-11-09T15:03:36.768Z,10.50
2022-11-09T15:06:08.565Z,7.70
2022-11-09T15:08:36.986Z,12.32
2022-11-09T15:11:03.744Z,10.10
2022-11-09T15:13:33.559Z,5.50
2022-11-09T15:16:00.387Z,7.70
2022-11-09T15:18:34.278Z,6.20
2022-11-09T15:21:13.292Z,8.70
2022-11-09T15:23:45.338Z,5.78
2022-11-09T15:26:38.491Z,6.07
2022-11-09T15:29:23.070Z,7.95
2022-11-09T15:32:11.690Z,8.23
2022-11-09T15:34:53.099Z,12.15
2022-11-09T15:37:28.037Z,6.68
2022-11-09T15:39:54.623Z,8.10
2022-11-09T15:42:21.274Z,9.77
2022-11-09T15:44:55.213Z,12.05
2022-11-09T15:47:25.086Z,11.13
2022-11-09T15:49:51.593Z,10.13
2022-11-09T15:52:18.067Z,20.33
2022-11-09T15:54:46.894Z,8.93
2022-11-09T15:57:19.347Z,17.90
2022-11-09T15:59:47.184Z,9.52
2022-11-09T16:02:14.068Z,6.68
2022-11-09T16:04:40.873Z,7.68
2022-11-09T16:07:07.896Z,14.38
2022-11-09T16:09:34.408Z,6.97
2022-11-09T16:12:00.868Z,9.55
2022-11-09T16:14:31.248Z,16.20
2022-11-09T16:16:57.750Z,11.50
2022-11-09T16:19:24.297Z,6.60
2022-11-09T16:21:53.973Z,10.70
2022-11-09T16:24:21.014Z,7.65
2022-11-09T16:26:47.902Z,8.82
2022-11-09T16:29:14.469Z,13.13
2022-11-09T16:31:51.480Z,11.90
2022-11-09T16:34:18.587Z,8.57
2022-11-09T16:36:50.879Z,13.07
2022-11-09T16:39:20.762Z,7.55
2022-11-09T16:41:48.992Z,12.15
2022-11-09T16:44:17.707Z,10.10
2022-11-09T16:46:45.574Z,10.23
2022-11-09T16:49:12.136Z,11.57
2022-11-09T16:51:38.778Z,7.13
2022-11-09T16:54:05.278Z,17.90
2022-11-09T16:56:33.644Z,7.35
2022-11-09T16:59:00.743Z,9.27
2022-11-09T17:01:27.483Z,10.77
2022-11-09T17:03:54.092Z,15.77
2022-11-09T17:06:20.590Z,11.48
2022-11-09T17:08:47.107Z,9.77
2022-11-09T17:11:15.067Z,11.52
2022-11-09T17:13:41.815Z,13.85
2022-11-09T17:16:11.474Z,11.77
2022-11-09T17:18:38.156Z,8.80
2022-11-09T17:21:10.198Z,13.30
2022-11-09T17:23:37.024Z,11.02
2022-11-09T17:26:06.376Z,16.33
2022-11-09T17:28:33.207Z,15.02
2022-11-09T17:30:59.927Z,14.07
2022-11-09T17:33:26.500Z,11.68
2022-11-09T17:36:00.897Z,16.88
2022-11-09T17:38:28.968Z,14.87
2022-11-09T17:41:12.674Z,11.45
2022-11-09T17:43:40.525Z,19.45
2022-11-09T17:46:12.037Z,14.95
2022-11-09T17:48:39.638Z,10.73
2022-11-09T17:51:07.561Z,13.63
2022-11-09T17:53:34.217Z,10.30
2022-11-09T17:56:01.762Z,12.35
2022-11-09T17:58:29.027Z,13.20
2022-11-09T18:00:55.613Z,14.40
2022-11-09T18:03:22.964Z,8.80
2022-11-09T18:05:49.461Z,10.40
2022-11-09T18:08:15.954Z,10.27
2022-11-09T18:10:43.944Z,10.50
2022-11-09T18:13:10.590Z,13.02
2022-11-09T18:15:38.153Z,9.85
2022-11-09T18:18:05.018Z,13.10
2022-11-09T18:20:32.251Z,10.25
2022-11-09T18:22:58.797Z,13.25
2022-11-09T18:25:25.994Z,8.35
2022-11-09T18:27:52.592Z,11.75
2022-11-09T18:30:19.135Z,15.75
2022-11-09T18:32:45.638Z,18.80
2022-11-09T18:35:12.268Z,15.35
2022-11-09T18:37:39.220Z,18.73
2022-11-09T18:40:06.621Z,15.80
2022-11-09T18:42:33.459Z,9.02
2022-11-09T18:45:00.043Z,13.38
2022-11-09T18:47:28.622Z,13.43
2022-11-09T18:49:55.145Z,15.45
2022-11-09T18:52:22.231Z,12.20
2022-11-09T18:54:49.452Z,14.85
2022-11-09T18:57:19.677Z,18.33
2022-11-09T18:59:46.445Z,18.13
2022-11-09T19:02:13.947Z,14.43
2022-11-09T19:04:40.471Z,13.32
2022-11-09T19:07:07.183Z,17.60
2022-11-09T19:09:38.479Z,14.43
2022-11-09T19:12:08.297Z,18.63
2022-11-09T19:14:40.861Z,12.32
2022-11-09T19:17:11.731Z,13.70
2022-11-09T19:19:38.290Z,20.40
2022-11-09T19:22:13.056Z,17.92
2022-11-09T19:24:39.551Z,14.68
2022-11-09T19:27:06.065Z,14.05
2022-11-09T19:29:32.541Z,12.63
2022-11-09T19:31:59.079Z,18.48
2022-11-09T19:34:25.576Z,12.68
2022-11-09T19:36:52.749Z,17.23
2022-11-09T19:39:19.283Z,16.95
2022-11-09T19:41:45.739Z,16.25
2022-11-09T19:44:17.988Z,14.80
2022-11-09T19:46:45.256Z,16.08
2022-11-09T19:49:12.022Z,13.88
2022-11-09T19:51:39.062Z,18.10
2022-11-09T19:54:06.451Z,20.23
2022-11-09T19:56:33.722Z,12.90
2022-11-09T19:59:01.717Z,17.70
2022-11-09T20:01:28.375Z,13.35
2022-11-09T20:03:56.451Z,15.88
2022-11-09T20:06:24.022Z,17.98
2022-11-09T20:08:52.136Z,15.13
2022-11-09T20:11:39.581Z,18.77
2022-11-09T20:14:07.134Z,13.95
2022-11-09T20:16:35.100Z,22.80
2022-11-09T20:19:03.027Z,18.63
2022-11-09T20:21:29.517Z,15.98
2022-11-09T20:23:56.312Z,19.48
2022-11-09T20:26:23.041Z,14.00
2022-11-09T20:28:49.592Z,22.13
2022-11-09T20:31:19.662Z,15.80
2022-11-09T20:33:46.571Z,15.63
2022-11-09T20:36:13.142Z,16.30
2022-11-09T20:38:40.155Z,13.95
2022-11-09T20:41:07.748Z,16.23
2022-11-09T20:43:36.052Z,13.07
2022-11-09T20:46:04.277Z,13.90
2022-11-09T20:48:52.904Z,17.92
2022-11-09T20:51:18.939Z,22.30
2022-11-09T20:53:46.422Z,17.60
2022-11-09T20:56:13.688Z,22.80
2022-11-09T20:58:40.523Z,14.65
2022-11-09T21:01:11.232Z,19.40
2022-11-09T21:03:37.804Z,16.35
2022-11-09T21:06:06.186Z,23.90
2022-11-09T21:08:32.735Z,19.83
2022-11-09T21:11:03.984Z,15.82
2022-11-09T21:13:31.306Z,18.73
2022-11-09T21:16:12.244Z,17.48
2022-11-09T21:18:39.295Z,18.40
2022-11-09T21:21:10.095Z,12.35
2022-11-09T21:23:55.686Z,16.40
2022-11-09T21:26:40.764Z,15.35
2022-11-09T21:29:29.141Z,14.10
2022-11-09T21:31:55.872Z,21.17
2022-11-09T21:34:22.382Z,17.23
2022-11-09T21:36:49.011Z,17.95
2022-11-09T21:39:15.473Z,24.08
2022-11-09T21:41:41.971Z,21.35
2022-11-09T21:44:09.835Z,20.13
2022-11-09T21:46:38.134Z,19.50
2022-11-09T21:49:06.663Z,27.75
2022-11-09T21:51:34.716Z,20.52
2022-11-09T21:54:01.403Z,18.95
2022-11-09T21:56:28.555Z,14.52
2022-11-09T21:58:55.213Z,21.27
2022-11-09T22:01:22.496Z,16.23
2022-11-09T22:03:49.728Z,17.70
2022-11-09T22:06:16.659Z,23.73
2022-11-09T22:08:44.793Z,23.40
2022-11-09T22:11:16.730Z,25.13
2022-11-09T22:14:01.905Z,22.85
2022-11-09T22:16:32.243Z,19.23
2022-11-09T22:19:17.498Z,25.10
2022-11-09T22:21:44.244Z,21.58
2022-11-09T22:24:11.199Z,20.80
2022-11-09T22:26:37.700Z,25.33
2022-11-09T22:29:04.551Z,26.60
2022-11-09T22:31:31.783Z,15.90
2022-11-09T22:33:58.312Z,17.63
2022-11-09T22:36:24.775Z,29.33
2022-11-09T22:38:51.314Z,23.48
2022-11-09T22:41:17.828Z,20.83
2022-11-09T22:43:44.607Z,19.77
2022-11-09T22:46:15.701Z,18.42
2022-11-09T22:48:43.424Z,27.10
2022-11-09T22:51:12.622Z,21.95
2022-11-09T22:53:39.207Z,20.75
2022-11-09T22:56:06.115Z,18.20
2022-11-09T22:58:32.672Z,20.75
2022-11-09T23:01:12.554Z,19.55
2022-11-09T23:03:39.508Z,19.73
2022-11-09T23:06:08.204Z,23.90
2022-11-09T23:08:38.452Z,20.52
2022-11-09T23:11:14.314Z,16.20
2022-11-09T23:13:41.410Z,23.55
2022-11-09T23:16:09.954Z,24.48
2022-11-09T23:18:55.312Z,18.33
2022-11-09T23:21:25.842Z,14.18
2022-11-09T23:23:54.062Z,22.63
2022-11-09T23:26:21.867Z,19.15
2022-11-09T23:28:48.446Z,21.10
2022-11-09T23:31:17.406Z,22.27
2022-11-09T23:33:43.972Z,21.63
2022-11-09T23:36:10.650Z,24.63
2022-11-09T23:38:38.653Z,25.67
2022-11-09T23:41:07.198Z,25.17
2022-11-09T23:43:34.500Z,19.70
2022-11-09T23:46:03.105Z,25.20
2022-11-09T23:48:29.774Z,24.65
2022-11-09T23:51:00.719Z,28.48
2022-11-09T23:53:28.612Z,20.80
2022-11-09T23:55:59.377Z,22.52
2022-11-09T23:58:25.819Z,21.65
